アテネ の空港の天気 - METARとTAF

アテネ国際空港 ( LGAV / ATH ) - ギリシャ アテネ
飛行場実況気象(Metar)
観測時間08/18 05:50 EEST (08/18 02:50 UTC)
風向・風速北 4m/s
視程10km以上
天気現象
なし
気温27℃
湿度32%
気圧1012hPa
METARLGAV 180250Z 01008KT CAVOK 27/09 Q1012 NOSIG
過去の天気等 Google飛行場航空写真 Wunderground天気予報

過去48時間のMETAR

飛行場予報(TAF)
発表時間: 8/18 02:00 EEST (8/17 23:00 UTC)
予報対象時間: 18日3時 EEST ~ 19日3時 EEST
風向・風速北 6m/s
視程10km以上
少しの雲 雲底高度 760m
18日7時 EEST ~ 18日9時 EEST に徐々に
風向・風速北北東 10m/s 瞬間風速 15m/s
18日11時 EEST ~ 18日17時 EEST に一時的に
風向・風速北北東 13m/s 瞬間風速 18m/s
18日19時 EEST ~ 18日21時 EEST に徐々に
風向・風速北 6m/s
TAF LGAV 172300Z 1800/1824 01012KT 9999 FEW025
BECMG 1804/1806 02020G30KT
TEMPO 1808/1814 02025G35KT
BECMG 1816/1818 35012KT